createdAt,value
2024-01-27T00:03:15.586Z,4.60
2024-01-27T00:08:12.077Z,4.63
2024-01-27T00:13:08.536Z,4.64
2024-01-27T00:18:05.243Z,4.60
2024-01-27T00:23:01.874Z,4.58
2024-01-27T00:27:58.531Z,4.62
2024-01-27T00:32:55.065Z,4.71
2024-01-27T00:37:51.709Z,4.73
2024-01-27T00:42:48.181Z,4.75
2024-01-27T00:47:45.409Z,4.77
2024-01-27T00:52:42.059Z,4.78
2024-01-27T00:57:39.455Z,4.80
2024-01-27T01:02:36.316Z,4.84
2024-01-27T01:07:32.862Z,4.85
2024-01-27T01:12:29.440Z,4.87
2024-01-27T01:17:25.988Z,4.85
2024-01-27T01:22:22.472Z,4.87
2024-01-27T01:27:20.260Z,4.88
2024-01-27T01:32:16.939Z,4.85
2024-01-27T01:37:14.542Z,4.90
2024-01-27T01:42:11.081Z,4.92
2024-01-27T01:47:08.953Z,4.96
2024-01-27T01:52:05.857Z,4.97
2024-01-27T01:57:04.440Z,4.98
2024-01-27T02:02:00.952Z,4.98
2024-01-27T02:06:57.429Z,4.96
2024-01-27T02:11:53.993Z,4.94
2024-01-27T02:16:50.453Z,4.93
2024-01-27T02:21:47.093Z,5.00
2024-01-27T02:26:43.671Z,4.96
2024-01-27T02:31:40.164Z,5.05
2024-01-27T02:36:36.687Z,5.05
2024-01-27T02:41:38.777Z,4.98
2024-01-27T02:46:35.278Z,4.99
2024-01-27T02:51:31.757Z,4.99
2024-01-27T02:56:28.489Z,4.99
2024-01-27T03:01:25.832Z,4.98
2024-01-27T03:06:22.578Z,4.95
2024-01-27T03:11:19.039Z,4.83
2024-01-27T03:16:15.666Z,4.85
2024-01-27T03:21:12.147Z,4.77
2024-01-27T03:26:08.626Z,4.73
2024-01-27T03:31:05.235Z,4.77
2024-01-27T03:36:01.728Z,4.77
2024-01-27T03:40:59.654Z,4.66
2024-01-27T03:45:56.152Z,4.69
2024-01-27T03:50:52.655Z,4.69
2024-01-27T03:55:49.121Z,4.68
2024-01-27T04:00:46.156Z,4.68
2024-01-27T04:05:42.989Z,4.65
2024-01-27T04:10:39.453Z,4.65
2024-01-27T04:15:39.407Z,4.68
2024-01-27T04:20:36.329Z,4.68
2024-01-27T04:25:32.786Z,4.61
2024-01-27T04:30:29.279Z,4.64
2024-01-27T04:35:25.720Z,4.49
2024-01-27T04:40:22.196Z,4.50
2024-01-27T04:45:18.638Z,4.50
2024-01-27T04:50:15.189Z,4.42
2024-01-27T04:55:11.721Z,4.29
2024-01-27T05:00:13.167Z,4.24
2024-01-27T05:05:10.126Z,4.15
2024-01-27T05:10:06.974Z,4.14
2024-01-27T05:15:04.433Z,4.08
2024-01-27T05:20:01.183Z,3.99
2024-01-27T05:24:58.356Z,3.99
2024-01-27T05:29:54.856Z,3.76
2024-01-27T05:34:51.469Z,3.63
2024-01-27T05:39:48.043Z,3.55
2024-01-27T05:44:44.590Z,3.48
2024-01-27T05:49:41.260Z,3.47
2024-01-27T05:54:38.211Z,3.41
2024-01-27T05:59:34.728Z,3.42
2024-01-27T06:04:32.543Z,3.58
2024-01-27T06:09:29.316Z,3.62
2024-01-27T06:14:25.832Z,3.57
2024-01-27T06:19:22.381Z,3.59
2024-01-27T06:24:19.010Z,3.57
2024-01-27T06:29:15.544Z,3.58
2024-01-27T06:34:12.131Z,3.39
2024-01-27T06:39:09.121Z,3.29
2024-01-27T06:44:05.722Z,3.27
2024-01-27T06:49:03.077Z,3.20
2024-01-27T06:53:59.732Z,3.09
2024-01-27T06:58:56.217Z,3.02
2024-01-27T07:03:52.936Z,2.97
2024-01-27T07:08:50.567Z,2.92
2024-01-27T07:13:47.490Z,2.85
2024-01-27T07:18:44.129Z,2.80
2024-01-27T07:23:40.662Z,2.70
2024-01-27T07:28:37.159Z,2.69
2024-01-27T07:33:33.789Z,2.62
2024-01-27T07:38:30.435Z,2.61
2024-01-27T07:43:28.132Z,2.59
2024-01-27T07:48:24.830Z,2.56
2024-01-27T07:53:21.324Z,2.61
2024-01-27T07:58:17.819Z,2.61
2024-01-27T08:03:14.428Z,2.61
2024-01-27T08:08:10.895Z,2.62
2024-01-27T08:13:08.158Z,2.64
2024-01-27T08:18:05.068Z,2.72
2024-01-27T08:23:04.057Z,2.74
2024-01-27T08:28:01.946Z,2.80
2024-01-27T08:32:58.587Z,2.76
2024-01-27T08:37:55.150Z,2.74
2024-01-27T08:42:51.639Z,2.81
2024-01-27T08:47:48.144Z,2.81
2024-01-27T08:52:44.633Z,2.85
2024-01-27T08:57:41.181Z,2.89
2024-01-27T09:02:37.713Z,3.01
2024-01-27T09:07:35.177Z,3.06
2024-01-27T09:12:31.800Z,3.14
2024-01-27T09:17:28.890Z,3.16
2024-01-27T09:22:25.385Z,3.26
2024-01-27T09:27:21.934Z,3.28
2024-01-27T09:32:18.401Z,3.34
2024-01-27T09:37:14.911Z,3.47
2024-01-27T09:42:14.924Z,3.56
2024-01-27T09:47:12.367Z,3.72
2024-01-27T09:52:09.336Z,3.91
2024-01-27T09:57:05.939Z,3.98
2024-01-27T10:02:04.928Z,4.32
2024-01-27T10:07:01.443Z,4.73
2024-01-27T10:11:59.243Z,5.21
2024-01-27T10:16:55.897Z,5.82
2024-01-27T10:22:03.259Z,6.03
2024-01-27T10:27:02.260Z,6.17
2024-01-27T10:32:11.471Z,5.74
2024-01-27T10:37:08.401Z,6.14
2024-01-27T10:42:06.828Z,6.02
2024-01-27T10:47:04.812Z,6.16
2024-01-27T10:52:05.974Z,5.84
2024-01-27T10:57:03.790Z,5.66
2024-01-27T11:02:01.425Z,5.94
2024-01-27T11:06:58.104Z,6.33
2024-01-27T11:11:55.149Z,6.39
2024-01-27T11:16:56.897Z,6.51
2024-01-27T11:22:03.651Z,6.59
2024-01-27T11:27:07.269Z,6.53
2024-01-27T11:32:04.705Z,6.93
2024-01-27T11:37:11.756Z,7.53
2024-01-27T11:42:10.347Z,7.26
2024-01-27T11:47:14.423Z,7.31
2024-01-27T11:52:10.931Z,7.07
2024-01-27T11:57:07.488Z,7.15
2024-01-27T12:02:04.437Z,7.53
2024-01-27T12:07:01.089Z,7.55
2024-01-27T12:11:57.641Z,7.14
2024-01-27T12:16:54.883Z,7.20
2024-01-27T12:21:51.454Z,7.36
2024-01-27T12:26:48.106Z,7.90
2024-01-27T12:31:45.010Z,8.33
2024-01-27T12:36:43.181Z,8.11
2024-01-27T12:41:39.699Z,8.09
2024-01-27T12:46:36.198Z,8.64
2024-01-27T12:51:32.718Z,8.54
2024-01-27T12:56:29.237Z,8.14
2024-01-27T13:01:25.677Z,8.91
2024-01-27T13:06:24.011Z,9.32
2024-01-27T13:11:21.311Z,9.60
2024-01-27T13:16:17.834Z,8.52
2024-01-27T13:21:14.360Z,8.35
2024-01-27T13:26:18.066Z,8.39
2024-01-27T13:31:16.315Z,8.48
2024-01-27T13:36:12.858Z,8.38
2024-01-27T13:41:09.434Z,8.66
2024-01-27T13:46:05.934Z,8.84
2024-01-27T13:51:02.568Z,9.06
2024-01-27T13:55:59.074Z,8.81
2024-01-27T14:00:55.566Z,8.52
2024-01-27T14:05:52.053Z,8.56
2024-01-27T14:10:51.472Z,8.25
2024-01-27T14:15:47.977Z,8.08
2024-01-27T14:20:44.449Z,8.39
2024-01-27T14:25:41.375Z,8.13
2024-01-27T14:30:40.874Z,8.05
2024-01-27T14:35:37.549Z,7.73
2024-01-27T14:40:34.237Z,7.54
2024-01-27T14:45:31.102Z,7.58
2024-01-27T14:50:27.662Z,7.40
2024-01-27T14:55:24.207Z,7.28
2024-01-27T15:00:20.726Z,7.14
2024-01-27T15:05:17.181Z,6.98
2024-01-27T15:10:13.689Z,6.81
2024-01-27T15:15:10.539Z,6.59
2024-01-27T15:20:07.713Z,6.50
2024-01-27T15:25:04.748Z,6.42
2024-01-27T15:30:01.304Z,6.27
2024-01-27T15:34:57.860Z,6.18
2024-01-27T15:39:54.604Z,6.05
2024-01-27T15:44:51.151Z,5.94
2024-01-27T15:49:53.782Z,5.82
2024-01-27T15:54:50.472Z,5.80
2024-01-27T15:59:46.953Z,5.69
2024-01-27T16:04:44.287Z,5.64
2024-01-27T16:09:47.205Z,5.59
2024-01-27T16:14:44.014Z,5.48
2024-01-27T16:19:40.594Z,5.44
2024-01-27T16:24:37.371Z,5.47
2024-01-27T16:29:33.845Z,5.39
2024-01-27T16:34:30.432Z,5.35
2024-01-27T16:39:26.994Z,5.32
2024-01-27T16:44:24.149Z,5.29
2024-01-27T16:49:20.717Z,5.25
2024-01-27T16:54:19.671Z,5.20
2024-01-27T16:59:16.251Z,5.14
2024-01-27T17:04:15.493Z,5.15
2024-01-27T17:09:15.186Z,5.11
2024-01-27T17:14:11.828Z,5.11
2024-01-27T17:19:08.378Z,5.04
2024-01-27T17:24:05.186Z,5.00
2024-01-27T17:29:01.691Z,4.98
2024-01-27T17:33:59.983Z,4.92
2024-01-27T17:38:56.561Z,4.89
2024-01-27T17:43:53.114Z,4.89
2024-01-27T17:48:49.763Z,4.87
2024-01-27T17:53:46.403Z,4.88
2024-01-27T17:58:43.517Z,4.82
2024-01-27T18:03:40.059Z,4.78
2024-01-27T18:08:36.581Z,4.78
2024-01-27T18:13:33.072Z,4.77
2024-01-27T18:18:29.580Z,4.70
2024-01-27T18:23:26.271Z,4.68
2024-01-27T18:28:22.695Z,4.65
2024-01-27T18:33:20.865Z,4.59
2024-01-27T18:38:17.481Z,4.55
2024-01-27T18:43:14.087Z,4.53
2024-01-27T18:48:10.917Z,4.42
2024-01-27T18:53:07.473Z,4.38
2024-01-27T18:58:13.077Z,4.40
2024-01-27T19:03:10.433Z,4.39
2024-01-27T19:08:07.219Z,4.40
2024-01-27T19:13:03.804Z,4.37
2024-01-27T19:18:00.469Z,4.33
2024-01-27T19:22:57.031Z,4.28
2024-01-27T19:27:53.813Z,4.21
2024-01-27T19:32:50.362Z,4.21
2024-01-27T19:37:47.132Z,4.18
2024-01-27T19:42:46.709Z,4.08
2024-01-27T19:47:43.262Z,4.08
2024-01-27T19:52:39.682Z,4.04
2024-01-27T19:57:36.222Z,4.01
2024-01-27T20:02:32.724Z,3.91
2024-01-27T20:07:32.160Z,3.89
2024-01-27T20:12:29.064Z,3.86
2024-01-27T20:17:25.618Z,3.80
2024-01-27T20:22:22.068Z,3.90
2024-01-27T20:27:18.817Z,3.90
2024-01-27T20:32:15.398Z,3.83
2024-01-27T20:37:11.885Z,3.80
2024-01-27T20:42:10.229Z,3.75
2024-01-27T20:47:07.066Z,3.76
2024-01-27T20:52:03.724Z,3.79
2024-01-27T20:57:00.354Z,3.71
2024-01-27T21:02:02.940Z,3.70
2024-01-27T21:06:59.615Z,3.66
2024-01-27T21:11:56.197Z,3.69
2024-01-27T21:16:52.923Z,3.73
2024-01-27T21:21:49.476Z,3.77
2024-01-27T21:26:46.671Z,3.65
2024-01-27T21:31:43.193Z,3.62
2024-01-27T21:36:39.861Z,3.62
2024-01-27T21:41:36.454Z,3.57
2024-01-27T21:46:32.881Z,3.53
2024-01-27T21:51:29.341Z,3.54
2024-01-27T21:56:26.382Z,3.53
2024-01-27T22:01:22.922Z,3.55
2024-01-27T22:06:19.502Z,3.46
2024-01-27T22:11:16.078Z,3.48
2024-01-27T22:16:12.675Z,3.34
2024-01-27T22:21:09.237Z,3.26
2024-01-27T22:26:05.779Z,3.28
2024-01-27T22:31:02.311Z,3.19
2024-01-27T22:35:58.733Z,3.13
2024-01-27T22:40:55.181Z,3.11
2024-01-27T22:45:51.708Z,3.05
2024-01-27T22:50:49.786Z,2.93
2024-01-27T22:55:46.317Z,2.99
2024-01-27T23:00:44.013Z,2.97
2024-01-27T23:05:41.864Z,2.84
2024-01-27T23:10:39.749Z,2.76
2024-01-27T23:15:36.268Z,2.61
2024-01-27T23:20:36.548Z,2.64
2024-01-27T23:25:33.013Z,2.60
2024-01-27T23:30:29.593Z,2.63
2024-01-27T23:35:26.200Z,2.60
2024-01-27T23:40:23.157Z,2.50
2024-01-27T23:45:20.350Z,2.49
2024-01-27T23:50:16.982Z,2.54
2024-01-27T23:55:13.743Z,2.53
